Time;durP1;ratioP1;P1;durP2;ratioP2;P2;SDS_P1;SDS_P2;PMS_P1;PMS_P2;Temp;Humidity;BMP_temperature;BMP_pressure;BME280_temperature;BME280_humidity;BME280_pressure;Samples;Min_cycle;Max_cycle;Signal;HPM_P1;HPM_P2
2021/04/11 00:00:34;;;;;;;24.25;10.27;;;;;;;2.95;100.00;100759.13;5133504;27;20062;-63
2021/04/11 00:03:00;;;;;;;24.17;10.18;;;;;;;2.94;100.00;100767.81;5132412;27;20466;-64
2021/04/11 00:05:30;;;;;;;24.05;9.98;;;;;;;2.94;100.00;100756.47;5133666;27;20038;-63
2021/04/11 00:07:56;;;;;;;24.10;10.13;;;;;;;2.88;100.00;100762.34;5132239;27;20027;-63
2021/04/11 00:10:28;;;;;;;24.50;10.30;;;;;;;2.87;100.00;100768.44;5133571;27;20377;-64
2021/04/11 00:12:54;;;;;;;23.05;9.38;;;;;;;2.86;100.00;100765.78;5133069;27;20023;-62
2021/04/11 00:15:20;;;;;;;24.30;9.90;;;;;;;2.84;100.00;100775.25;5134027;27;20037;-63
2021/04/11 00:17:45;;;;;;;24.02;9.80;;;;;;;2.87;100.00;100768.44;5133518;27;20027;-63
2021/04/11 00:20:12;;;;;;;23.90;10.15;;;;;;;2.80;100.00;100771.66;5132408;27;20026;-63
2021/04/11 00:22:37;;;;;;;23.80;10.00;;;;;;;2.78;100.00;100771.63;5133737;27;20023;-63
2021/04/11 00:25:11;;;;;;;24.88;10.32;;;;;;;2.78;100.00;100778.53;5133518;27;20118;-63
2021/04/11 00:27:36;;;;;;;23.02;9.73;;;;;;;2.83;100.00;100765.69;5132214;27;20030;-63
2021/04/11 00:30:03;;;;;;;24.02;10.30;;;;;;;2.82;99.46;100771.72;5132877;27;20023;-63
2021/04/11 00:32:28;;;;;;;24.88;10.93;;;;;;;2.72;100.00;100773.13;5132596;27;20119;-64
2021/04/11 00:34:53;;;;;;;24.55;10.27;;;;;;;2.70;100.00;100770.47;5131596;27;20068;-62
2021/04/11 00:37:19;;;;;;;23.80;10.15;;;;;;;2.69;100.00;100753.00;5133584;27;20023;-63
2021/04/11 00:39:44;;;;;;;25.17;10.45;;;;;;;2.69;100.00;100753.00;5132333;27;20098;-63
2021/04/11 00:42:16;;;;;;;23.33;10.20;;;;;;;2.75;100.00;100758.47;5133155;27;20022;-62
2021/04/11 00:44:42;;;;;;;24.15;9.80;;;;;;;2.74;100.00;100758.41;5133612;27;20072;-62
2021/04/11 00:47:08;;;;;;;23.98;10.10;;;;;;;2.70;100.00;100757.41;5132653;27;20027;-64
2021/04/11 00:49:41;;;;;;;23.42;9.95;;;;;;;2.73;100.00;100762.72;5132381;27;20282;-62
2021/04/11 00:52:08;;;;;;;23.08;9.27;;;;;;;2.71;99.81;100758.28;5133127;27;20031;-63
2021/04/11 00:54:35;;;;;;;24.92;10.43;;;;;;;2.64;100.00;100767.63;5133158;27;20492;-63
2021/04/11 00:57:01;;;;;;;24.20;10.30;;;;;;;2.62;100.00;100769.28;5132293;27;20034;-63
2021/04/11 00:59:27;;;;;;;23.83;9.77;;;;;;;2.66;100.00;100775.53;5132241;27;20111;-62
2021/04/11 01:01:53;;;;;;;24.23;9.73;;;;;;;2.67;99.53;100762.53;5132882;27;20106;-63
2021/04/11 01:04:18;;;;;;;23.45;8.93;;;;;;;2.76;95.73;100756.72;5132784;27;20037;-62
2021/04/11 01:06:52;;;;;;;23.48;10.20;;;;;;;2.68;98.35;100759.09;5132768;27;20027;-62
2021/04/11 01:09:31;;;;;;;23.90;10.23;;;;;;;2.58;97.44;100773.53;5132484;27;20023;-62
2021/04/11 01:11:59;;;;;;;24.05;9.70;;;;;;;2.59;97.17;100766.56;5131886;27;20027;-63
2021/04/11 01:14:27;;;;;;;23.42;9.20;;;;;;;2.55;98.32;100751.63;5132135;27;20019;-63
2021/04/11 01:16:53;;;;;;;24.00;9.65;;;;;;;2.50;99.41;100746.25;5132562;27;20118;-64
2021/04/11 01:19:24;;;;;;;23.02;9.35;;;;;;;2.51;98.88;100740.22;5132609;27;20038;-63
2021/04/11 01:22:08;;;;;;;23.13;8.80;;;;;;;2.57;97.93;100735.19;5131943;27;20038;-63
2021/04/11 01:25:05;;;;;;;22.58;8.50;;;;;;;2.61;96.53;100741.44;5129123;27;20119;-63
2021/04/11 01:27:34;;;;;;;23.00;9.38;;;;;;;2.51;97.38;100744.56;5052060;28;20037;-62
2021/04/11 01:30:19;;;;;;;23.10;8.80;;;;;;;2.56;96.04;100759.53;5051161;28;20533;-62
2021/04/11 01:32:45;;;;;;;22.25;8.90;;;;;;;2.43;97.97;100745.16;5053741;28;20048;-62
2021/04/11 01:35:12;;;;;;;23.35;9.05;;;;;;;2.42;98.61;100756.44;5051861;28;20053;-63
2021/04/11 01:37:38;;;;;;;21.67;8.30;;;;;;;2.41;97.89;100753.75;5051964;28;20843;-62
2021/04/11 01:40:05;;;;;;;22.55;8.82;;;;;;;2.42;97.44;100748.59;5052110;28;20020;-63
2021/04/11 01:42:32;;;;;;;21.80;8.40;;;;;;;2.37;96.94;100744.03;5048874;28;20171;-62
2021/04/11 01:44:57;;;;;;;21.92;7.70;;;;;;;2.41;95.28;100744.19;5052245;28;20115;-62
2021/04/11 01:47:22;;;;;;;22.17;8.35;;;;;;;2.32;96.79;100743.00;5052266;28;20112;-62
2021/04/11 01:49:48;;;;;;;21.92;8.10;;;;;;;2.33;97.25;100750.88;5038959;28;20212;-62
2021/04/11 01:52:26;;;;;;;22.17;8.40;;;;;;;2.36;97.50;100761.44;5050540;28;20137;-62
2021/04/11 01:54:52;;;;;;;17.55;5.07;;;;;;;2.37;95.15;100765.78;5051173;28;20477;-63
2021/04/11 01:57:25;;;;;;;21.52;8.00;;;;;;;2.32;95.70;100758.66;5051469;28;20112;-62
2021/04/11 01:59:59;;;;;;;22.02;8.25;;;;;;;2.24;97.43;100756.66;5048868;28;20036;-63
2021/04/11 02:02:24;;;;;;;21.83;7.25;;;;;;;2.26;96.65;100760.19;5045623;28;20025;-64
2021/04/11 02:04:50;;;;;;;21.17;7.63;;;;;;;2.20;97.10;100753.84;5124213;28;20584;-64
2021/04/11 02:07:15;;;;;;;21.52;7.97;;;;;;;2.18;97.91;100758.13;5132102;27;20066;-63
2021/04/11 02:09:46;;;;;;;21.05;7.50;;;;;;;2.30;95.60;100761.22;5131681;27;20033;-64
2021/04/11 02:12:13;;;;;;;21.88;7.97;;;;;;;2.18;96.26;100766.84;5129968;28;20485;-65
2021/04/11 02:14:40;;;;;;;21.38;7.50;;;;;;;2.25;96.43;100776.66;5132019;28;20111;-64
2021/04/11 02:17:06;;;;;;;21.42;7.68;;;;;;;2.15;98.90;100761.50;5131446;28;20034;-64
2021/04/11 02:19:32;;;;;;;22.27;7.82;;;;;;;2.16;99.01;100778.06;5131402;28;20106;-64
2021/04/11 02:22:15;;;;;;;22.15;8.10;;;;;;;2.21;99.53;100768.69;5131719;27;20027;-65
2021/04/11 02:24:42;;;;;;;21.45;7.90;;;;;;;2.21;99.36;100758.25;5130111;28;20023;-64
2021/04/11 02:27:09;;;;;;;21.77;8.02;;;;;;;2.23;98.70;100774.88;5129798;28;20031;-64
2021/04/11 02:29:35;;;;;;;21.88;7.57;;;;;;;2.21;97.88;100782.63;5130955;28;20034;-64
2021/04/11 02:32:00;;;;;;;22.65;8.60;;;;;;;2.16;99.12;100781.56;5130315;27;20012;-64
2021/04/11 02:34:33;;;;;;;21.40;8.13;;;;;;;2.25;99.02;100776.66;5131313;27;20474;-64
2021/04/11 02:37:07;;;;;;;22.05;7.45;;;;;;;2.20;97.76;100778.25;5131652;27;20019;-65
2021/04/11 02:39:37;;;;;;;21.92;7.97;;;;;;;2.23;98.15;100790.50;5131583;28;20037;-64
2021/04/11 02:42:07;;;;;;;22.58;8.25;;;;;;;2.22;97.87;100793.94;5131750;28;20060;-65
2021/04/11 02:44:37;;;;;;;22.33;7.80;;;;;;;2.20;99.96;100803.41;5131100;28;20042;-64
2021/04/11 02:47:05;;;;;;;21.85;7.65;;;;;;;2.25;98.05;100807.09;5131036;28;20117;-64
2021/04/11 02:49:30;;;;;;;22.08;7.97;;;;;;;2.26;98.27;100816.72;5130979;27;20111;-64
2021/04/11 02:52:03;;;;;;;22.48;7.38;;;;;;;2.33;96.96;100812.59;5132367;27;20484;-64
2021/04/11 02:54:30;;;;;;;21.90;7.85;;;;;;;2.25;97.95;100818.41;5130896;27;20027;-65
2021/04/11 02:56:57;;;;;;;21.55;6.88;;;;;;;2.31;97.21;100812.53;5129595;28;20115;-64
2021/04/11 02:59:22;;;;;;;21.23;7.78;;;;;;;2.27;98.04;100808.03;5130275;28;20026;-64
2021/04/11 03:01:49;;;;;;;22.13;7.93;;;;;;;2.22;99.28;100801.78;5131740;27;20019;-64
2021/04/11 03:04:18;;;;;;;21.63;7.82;;;;;;;2.23;99.98;100798.34;5132277;27;20355;-64
2021/04/11 03:06:51;;;;;;;21.80;7.95;;;;;;;2.24;100.00;100807.91;5134890;27;20035;-64
2021/04/11 03:09:22;;;;;;;20.02;7.20;;;;;;;2.31;98.00;100809.94;5134586;27;20398;-64
2021/04/11 03:11:51;;;;;;;20.38;6.65;;;;;;;2.22;99.44;100815.69;5134242;27;20481;-64
2021/04/11 03:14:19;;;;;;;19.58;6.45;;;;;;;2.21;98.86;100805.19;5135359;27;20105;-64
2021/04/11 03:16:44;;;;;;;19.63;6.15;;;;;;;2.22;98.80;100805.25;5135505;27;20373;-64
2021/04/11 03:19:14;;;;;;;19.35;6.22;;;;;;;2.19;100.00;100814.69;5134414;27;20027;-64
2021/04/11 03:21:42;;;;;;;18.63;5.45;;;;;;;2.33;96.58;100817.81;5135091;27;20122;-64
2021/04/11 03:24:09;;;;;;;18.67;5.15;;;;;;;2.27;97.81;100810.63;5134456;27;20065;-65
2021/04/11 03:26:42;;;;;;;17.70;5.03;;;;;;;2.34;97.02;100815.25;5134888;27;20131;-64
2021/04/11 03:29:23;;;;;;;18.00;5.18;;;;;;;2.33;96.93;100805.69;5133540;27;20496;-65
2021/04/11 03:32:12;;;;;;;17.50;4.90;;;;;;;2.25;97.80;100815.81;5133816;27;20511;-64
2021/04/11 03:34:39;;;;;;;18.10;4.72;;;;;;;2.22;97.71;100820.03;5090223;28;20069;-64
2021/04/11 03:37:08;;;;;;;17.13;4.65;;;;;;;2.26;97.34;100832.38;5073563;28;20045;-64
2021/04/11 03:39:34;;;;;;;17.52;4.70;;;;;;;2.21;98.08;100836.50;5075076;28;20127;-64
2021/04/11 03:42:05;;;;;;;16.25;4.53;;;;;;;2.27;97.54;100834.13;5077145;28;20020;-64
2021/04/11 03:44:30;;;;;;;17.40;4.70;;;;;;;2.23;97.83;100830.53;5070276;28;20043;-64
2021/04/11 03:47:06;;;;;;;15.82;4.50;;;;;;;2.29;98.72;100827.25;5074362;28;20123;-63
2021/04/11 03:49:53;;;;;;;15.45;4.30;;;;;;;2.19;98.23;100826.00;5070800;28;20032;-64
2021/04/11 03:52:27;;;;;;;16.75;4.40;;;;;;;2.32;96.32;100824.75;5072187;28;20043;-64
2021/04/11 03:54:54;;;;;;;15.77;4.30;;;;;;;2.22;97.51;100814.81;5069707;28;20036;-64
2021/04/11 03:57:26;;;;;;;16.88;4.60;;;;;;;2.18;97.39;100816.41;5076340;28;20032;-64
2021/04/11 04:00:05;;;;;;;15.95;4.15;;;;;;;2.21;97.22;100826.06;5069670;28;20041;-64
2021/04/11 04:02:35;;;;;;;17.30;4.38;;;;;;;2.22;98.12;100825.25;5070930;28;20503;-65
2021/04/11 04:05:05;;;;;;;15.80;4.20;;;;;;;2.21;99.06;100823.47;5075939;28;20040;-64
2021/04/11 04:07:45;;;;;;;16.95;4.63;;;;;;;2.24;99.55;100841.84;5070608;28;20032;-64
2021/04/11 04:10:12;;;;;;;17.00;4.70;;;;;;;2.28;98.13;100855.91;5073908;28;20059;-64
2021/04/11 04:12:57;;;;;;;16.30;4.60;;;;;;;2.32;97.96;100853.47;5089498;28;20051;-64
2021/04/11 04:15:43;;;;;;;17.33;4.65;;;;;;;2.32;98.63;100845.63;5091294;28;20160;-63
2021/04/11 04:18:24;;;;;;;15.88;4.53;;;;;;;2.42;96.11;100852.09;5093852;28;20050;-63
2021/04/11 04:21:08;;;;;;;17.17;4.90;;;;;;;2.41;97.62;100859.00;5091375;28;20413;-63
2021/04/11 04:23:39;;;;;;;18.55;4.97;;;;;;;2.37;98.32;100848.41;5095827;28;20036;-63
2021/04/11 04:26:38;;;;;;;16.13;4.13;;;;;;;2.42;97.57;100855.59;5092764;28;20568;-63
2021/04/11 04:29:20;;;;;;;14.52;4.30;;;;;;;2.35;98.67;100865.75;5095352;28;20040;-63
2021/04/11 04:31:59;;;;;;;16.58;4.30;;;;;;;2.42;98.43;100865.16;5093000;28;20130;-62
2021/04/11 04:34:46;;;;;;;15.93;4.20;;;;;;;2.40;98.03;100862.47;5096006;28;20114;-63
2021/04/11 04:37:26;;;;;;;15.23;4.22;;;;;;;2.38;98.57;100874.56;5130139;27;20045;-63
2021/04/11 04:40:08;;;;;;;15.43;4.25;;;;;;;2.47;97.42;100883.56;5130869;27;20019;-62
2021/04/11 04:42:41;;;;;;;16.65;4.60;;;;;;;2.42;97.70;100896.47;5133457;27;20652;-62
2021/04/11 04:45:10;;;;;;;;;;;;;;;2.45;96.21;100888.75;5133104;27;20039;-62
2021/04/11 04:47:53;;;;;;;15.88;4.40;;;;;;;2.46;96.63;100893.09;5133406;27;19922;-62
2021/04/11 04:50:30;;;;;;;15.18;4.20;;;;;;;2.39;98.57;100888.53;5132151;27;20023;-63
2021/04/11 04:53:20;;;;;;;16.73;4.13;;;;;;;2.44;98.23;100900.88;5131509;27;20370;-63
2021/04/11 04:55:49;;;;;;;17.55;4.63;;;;;;;2.41;99.81;100908.59;5131929;27;20104;-64
2021/04/11 04:58:24;;;;;;;16.98;4.80;;;;;;;2.42;100.00;100915.59;5130004;27;20026;-64
2021/04/11 05:00:57;;;;;;;17.13;4.50;;;;;;;2.43;100.00;100922.59;5132361;27;20466;-64
2021/04/11 05:03:32;;;;;;;19.25;4.75;;;;;;;2.51;99.41;100906.34;5132501;27;20029;-64
2021/04/11 05:06:17;;;;;;;15.63;4.00;;;;;;;2.44;100.00;100906.09;5132690;27;20027;-64
2021/04/11 05:09:08;;;;;;;15.65;3.97;;;;;;;2.57;99.60;100911.81;5132495;27;20068;-65
2021/04/11 05:11:40;;;;;;;13.85;3.70;;;;;;;2.53;98.37;100918.59;5132710;27;20412;-64
2021/04/11 05:14:13;;;;;;;16.10;3.95;;;;;;;2.37;100.00;100918.84;5132714;27;20030;-64
2021/04/11 05:16:45;;;;;;;12.85;3.55;;;;;;;2.36;100.00;100915.38;5132276;27;20027;-64
2021/04/11 05:19:16;;;;;;;13.32;3.47;;;;;;;2.39;100.00;100920.72;5132089;27;20061;-64
2021/04/11 05:21:48;;;;;;;11.35;3.38;;;;;;;2.39;99.62;100920.72;5132591;27;20034;-64
2021/04/11 05:24:22;;;;;;;14.07;3.67;;;;;;;2.37;100.00;100926.69;5132826;27;20031;-64
2021/04/11 05:27:03;;;;;;;12.50;3.67;;;;;;;2.41;100.00;100944.25;5131603;27;20023;-64
2021/04/11 05:29:38;;;;;;;13.02;3.40;;;;;;;2.46;99.06;100944.41;5131366;27;20080;-65
2021/04/11 05:32:04;;;;;;;10.85;3.13;;;;;;;2.47;99.25;100948.81;5130763;27;20022;-64
2021/04/11 05:34:30;;;;;;;11.10;3.30;;;;;;;2.48;99.35;100948.00;5131283;27;20015;-65
2021/04/11 05:37:04;;;;;;;10.90;3.20;;;;;;;2.56;98.33;100943.94;5132261;27;20039;-64
2021/04/11 05:39:38;;;;;;;10.90;3.15;;;;;;;2.55;97.65;100945.69;5130369;27;20023;-64
2021/04/11 05:42:08;;;;;;;12.57;3.50;;;;;;;2.57;97.03;100944.00;5131101;27;20392;-64
2021/04/11 05:44:40;;;;;;;9.70;3.00;;;;;;;2.63;96.00;100945.97;5131455;27;20385;-64
2021/04/11 05:47:19;;;;;;;12.82;3.35;;;;;;;2.64;96.76;100946.88;5130835;27;20126;-65
2021/04/11 05:49:50;;;;;;;11.00;3.13;;;;;;;2.63;97.06;100947.69;5132561;28;20045;-64
2021/04/11 05:52:49;;;;;;;11.35;3.30;;;;;;;2.72;95.79;100951.56;5132317;28;20030;-65
2021/04/11 05:55:18;;;;;;;12.32;3.50;;;;;;;2.68;95.81;100967.94;5050644;28;20040;-64
2021/04/11 05:57:48;;;;;;;9.90;3.22;;;;;;;2.71;95.46;100968.03;5051540;28;20044;-65
2021/04/11 06:00:25;;;;;;;11.20;2.80;;;;;;;2.79;93.63;100973.53;5052592;28;20090;-65
2021/04/11 06:02:57;;;;;;;7.75;3.00;;;;;;;2.76;94.94;100989.09;5051328;28;20044;-64
2021/04/11 06:05:38;;;;;;;14.25;3.47;;;;;;;2.78;96.28;100996.16;5051742;28;20388;-64
2021/04/11 06:08:24;;;;;;;11.85;3.50;;;;;;;2.84;93.99;100997.22;5054820;28;20108;-64
2021/04/11 06:10:59;;;;;;;12.20;3.30;;;;;;;2.86;94.35;101001.66;5051947;28;20033;-64
2021/04/11 06:13:43;;;;;;;13.57;3.60;;;;;;;2.89;94.05;101004.41;5047854;28;20124;-65
2021/04/11 06:16:12;;;;;;;11.48;3.40;;;;;;;2.88;93.98;101005.22;5051128;28;20116;-65
2021/04/11 06:18:42;;;;;;;10.88;3.50;;;;;;;2.91;94.41;101001.84;5048702;28;20061;-65
2021/04/11 06:21:15;;;;;;;10.25;3.33;;;;;;;3.05;92.16;101007.59;5052022;28;20025;-66
2021/04/11 06:23:49;;;;;;;14.68;3.67;;;;;;;3.02;92.57;101005.75;5048906;28;20032;-65
2021/04/11 06:26:30;;;;;;;11.27;3.35;;;;;;;3.06;93.37;101011.97;5034207;28;20064;-65
2021/04/11 06:29:15;;;;;;;14.60;3.63;;;;;;;3.12;91.69;101013.09;5047565;28;20035;-66
2021/04/11 06:31:47;;;;;;;12.32;3.63;;;;;;;3.21;90.64;101009.06;5094539;28;20050;-65
2021/04/11 06:34:19;;;;;;;13.97;3.70;;;;;;;3.30;91.67;101017.22;5131598;28;20027;-66
2021/04/11 06:36:49;;;;;;;12.95;3.45;;;;;;;3.34;88.99;101011.28;5132411;27;20039;-65
2021/04/11 06:39:24;;;;;;;11.93;3.60;;;;;;;3.37;90.04;101003.56;5131894;27;20028;-66
2021/04/11 06:42:24;;;;;;;13.70;3.80;;;;;;;3.38;90.46;101010.56;5132337;27;20496;-65
2021/04/11 06:45:14;;;;;;;12.98;3.75;;;;;;;3.32;89.40;101020.81;5132909;27;20505;-66
2021/04/11 06:47:39;;;;;;;16.05;4.25;;;;;;;3.31;89.27;101025.13;5135639;27;20027;-65
2021/04/11 06:50:22;;;;;;;16.23;4.40;;;;;;;3.35;90.37;101038.28;5135143;27;20026;-64
2021/04/11 06:52:57;;;;;;;16.27;4.22;;;;;;;3.36;89.23;101038.34;5136988;27;20038;-65
2021/04/11 06:55:43;;;;;;;14.23;3.65;;;;;;;3.45;87.71;101049.16;5134579;27;20540;-65
2021/04/11 06:58:33;;;;;;;16.48;4.32;;;;;;;3.36;88.67;101054.03;5134687;27;20027;-65
2021/04/11 07:01:17;;;;;;;16.10;4.45;;;;;;;3.45;89.24;101057.00;5134521;27;20032;-64
2021/04/11 07:04:30;;;;;;;17.50;4.80;;;;;;;3.70;88.28;101057.91;5135549;27;20027;-65
2021/04/11 07:07:17;;;;;;;18.10;4.53;;;;;;;3.54;87.55;101059.06;5066770;28;20399;-65
2021/04/11 07:10:05;;;;;;;14.63;3.90;;;;;;;3.58;86.38;101057.44;5068129;28;20502;-64
2021/04/11 07:13:01;;;;;;;16.35;4.45;;;;;;;3.52;86.82;101060.72;5066481;28;20512;-65
2021/04/11 07:15:39;;;;;;;16.77;4.53;;;;;;;3.51;86.71;101064.19;5066782;28;20039;-65
2021/04/11 07:18:22;;;;;;;15.38;4.30;;;;;;;3.52;87.26;101065.94;5066604;28;20037;-65
2021/04/11 07:21:25;;;;;;;16.30;4.40;;;;;;;3.58;85.70;101073.13;5067387;28;20550;-64
2021/04/11 07:24:18;;;;;;;14.73;4.15;;;;;;;3.53;86.50;101077.31;5067303;28;20041;-65
2021/04/11 07:27:18;;;;;;;13.95;3.50;;;;;;;3.67;84.52;101081.31;5065088;28;20032;-64
2021/04/11 07:30:00;;;;;;;14.55;3.65;;;;;;;3.54;85.58;101085.22;5068179;28;20033;-65
2021/04/11 07:32:43;;;;;;;13.52;3.80;;;;;;;3.44;84.73;101081.34;5067737;28;20020;-65
2021/04/11 07:35:28;;;;;;;15.80;4.30;;;;;;;3.41;85.68;101089.09;5064214;28;20057;-64
2021/04/11 07:37:54;;;;;;;15.77;4.10;;;;;;;3.48;84.83;101101.56;5067195;28;20166;-64
2021/04/11 07:40:41;;;;;;;15.52;3.97;;;;;;;3.45;84.95;101098.81;5065824;28;20428;-65
2021/04/11 07:43:48;;;;;;;16.15;4.32;;;;;;;3.41;86.24;101114.34;5075782;27;20542;-65
2021/04/11 07:46:16;;;;;;;16.92;3.90;;;;;;;3.41;85.35;101115.22;5085800;28;20437;-65
2021/04/11 07:48:56;;;;;;;15.63;4.20;;;;;;;3.40;84.91;101118.66;5085390;28;20035;-64
2021/04/11 07:51:43;;;;;;;15.13;4.15;;;;;;;3.45;84.25;101110.97;5087888;28;20028;-64
2021/04/11 07:54:20;;;;;;;17.05;4.68;;;;;;;3.44;84.52;101112.72;5085685;28;20066;-64
2021/04/11 07:56:52;;;;;;;10.55;3.40;;;;;;;3.57;83.81;101108.84;5085963;28;20044;-65
2021/04/11 07:59:36;;;;;;;14.02;3.65;;;;;;;3.64;83.12;101104.72;5085613;28;20040;-65
2021/04/11 08:02:04;;;;;;;15.10;4.15;;;;;;;3.71;83.00;101117.19;5089341;28;20062;-65
2021/04/11 08:05:25;;;;;;;15.23;4.30;;;;;;;4.14;82.66;101123.97;5085479;28;20024;-65
2021/04/11 08:07:59;;;;;;;15.45;3.90;;;;;;;4.45;81.26;101132.84;4952636;29;20142;-65
2021/04/11 08:11:02;;;;;;;14.63;3.78;;;;;;;4.53;79.79;101141.88;4952176;29;20050;-64
2021/04/11 08:13:37;;;;;;;16.60;3.97;;;;;;;4.60;80.81;101148.22;4912724;29;20032;-65
2021/04/11 08:16:28;;;;;;;14.48;3.83;;;;;;;4.72;80.25;101152.97;4914176;29;20120;-64
2021/04/11 08:19:08;;;;;;;15.27;3.80;;;;;;;4.82;78.74;101160.28;4910664;29;20040;-64
2021/04/11 08:21:50;;;;;;;15.98;3.95;;;;;;;4.88;78.31;101146.50;4915033;29;20036;-64
2021/04/11 08:24:46;;;;;;;13.95;3.67;;;;;;;4.83;79.30;101151.56;4952390;29;20077;-64
2021/04/11 08:27:35;;;;;;;16.02;3.70;;;;;;;4.92;78.89;101160.56;4952108;29;20055;-64
2021/04/11 08:30:40;;;;;;;14.15;3.90;;;;;;;4.94;77.89;101156.28;4951142;29;20418;-65
2021/04/11 08:33:05;;;;;;;12.38;3.50;;;;;;;4.98;77.92;101164.31;4949771;28;20098;-65
2021/04/11 08:35:59;;;;;;;14.38;3.78;;;;;;;4.99;79.25;101163.44;4951591;28;20506;-65
2021/04/11 08:38:31;;;;;;;12.63;3.47;;;;;;;5.02;76.71;101173.13;4945417;29;20475;-65
2021/04/11 08:41:30;;;;;;;13.00;3.25;;;;;;;4.95;78.44;101171.16;4956682;28;20646;-65
2021/04/11 08:44:07;;;;;;;14.85;3.80;;;;;;;4.85;77.81;101170.88;4970552;28;20182;-66
2021/04/11 08:47:07;;;;;;;13.13;3.63;;;;;;;4.81;78.78;101179.47;5007771;28;20123;-66
2021/04/11 08:49:55;;;;;;;13.00;3.83;;;;;;;4.77;78.04;101184.56;5035094;28;20040;-65
2021/04/11 08:52:27;;;;;;;13.30;3.63;;;;;;;4.58;79.14;101181.31;5086972;28;20028;-66
2021/04/11 08:55:03;;;;;;;14.80;3.90;;;;;;;4.57;80.34;101165.53;5085910;28;20133;-65
2021/04/11 08:57:38;;;;;;;14.20;3.80;;;;;;;5.01;79.53;101176.59;5088003;28;20538;-65
2021/04/11 09:00:18;;;;;;;12.60;3.60;;;;;;;5.83;77.84;101179.97;5086487;28;20032;-65
2021/04/11 09:03:03;;;;;;;14.48;3.60;;;;;;;6.66;75.23;101193.66;5088519;28;20046;-65
2021/04/11 09:06:06;;;;;;;12.73;3.40;;;;;;;7.22;72.69;101204.66;5084415;28;20028;-65
2021/04/11 09:08:52;;;;;;;12.77;3.35;;;;;;;7.11;71.09;101211.44;5083040;28;20541;-65
2021/04/11 09:11:32;;;;;;;10.55;3.20;;;;;;;6.70;70.00;101206.91;5128730;27;20027;-65
2021/04/11 09:14:02;;;;;;;11.60;3.08;;;;;;;6.33;71.35;101205.91;5129949;27;20458;-66
2021/04/11 09:16:39;;;;;;;10.80;3.17;;;;;;;6.09;72.02;101207.00;5132867;27;20031;-66
2021/04/11 09:19:33;;;;;;;11.15;3.05;;;;;;;5.79;73.68;101222.72;5131091;27;20023;-65
2021/04/11 09:22:32;;;;;;;10.30;3.00;;;;;;;5.68;74.71;101221.50;5129555;27;20125;-64
2021/04/11 09:25:00;;;;;;;12.68;3.10;;;;;;;5.43;74.28;101212.00;5129753;27;20023;-65
2021/04/11 09:28:03;;;;;;;14.10;3.10;;;;;;;5.34;74.76;101223.06;5131598;27;20030;-65
2021/04/11 09:30:37;;;;;;;11.80;3.00;;;;;;;5.12;75.57;101232.88;5131451;27;20050;-64
2021/04/11 09:33:24;;;;;;;11.80;3.10;;;;;;;5.02;76.41;101234.31;5132588;27;20035;-64
2021/04/11 09:36:08;;;;;;;13.75;3.25;;;;;;;5.10;76.83;101229.31;5131837;27;20043;-63
2021/04/11 09:39:04;;;;;;;15.32;3.40;;;;;;;5.26;76.18;101228.09;5131191;27;20413;-63
2021/04/11 09:42:07;;;;;;;15.77;3.25;;;;;;;5.44;75.76;101238.25;5129950;27;20026;-65
2021/04/11 09:44:43;;;;;;;13.98;3.38;;;;;;;5.55;74.56;101234.25;5130246;27;20027;-64
2021/04/11 09:47:22;;;;;;;13.27;3.15;;;;;;;5.62;74.24;101237.97;5130825;27;20045;-64
2021/04/11 09:49:56;;;;;;;15.30;3.40;;;;;;;5.67;74.51;101240.72;5131529;27;20020;-64
2021/04/11 09:52:47;;;;;;;14.32;3.38;;;;;;;5.50;75.07;101241.06;5131524;28;20393;-65
2021/04/11 09:55:12;;;;;;;11.13;3.08;;;;;;;5.50;74.69;101251.56;5131272;27;20110;-65
2021/04/11 09:58:15;;;;;;;15.50;3.38;;;;;;;5.43;74.22;101270.56;5132167;28;20521;-64
2021/04/11 10:00:59;;;;;;;14.65;3.47;;;;;;;5.52;75.24;101268.25;5130665;28;20071;-65
2021/04/11 10:03:24;;;;;;;16.10;3.40;;;;;;;5.71;72.68;101268.84;5131665;28;20390;-65
2021/04/11 10:06:07;;;;;;;15.10;3.42;;;;;;;5.74;73.18;101268.94;5131213;28;20023;-64
2021/04/11 10:08:32;;;;;;;;;;;;;;;5.80;73.20;101270.84;5131239;28;20026;-64
2021/04/11 10:11:19;;;;;;;13.07;3.20;;;;;;;5.77;73.21;101271.63;5132083;27;19911;-64
2021/04/11 10:14:05;;;;;;;15.45;3.35;;;;;;;5.91;72.57;101272.94;5136148;27;20027;-64
2021/04/11 10:17:08;;;;;;;11.55;3.00;;;;;;;6.10;71.91;101274.41;5134144;27;20019;-64
2021/04/11 10:20:07;;;;;;;13.10;3.08;;;;;;;6.39;70.53;101279.63;5133749;27;20423;-64
2021/04/11 10:22:36;;;;;;;12.45;2.95;;;;;;;6.52;69.67;101272.09;5133570;27;20106;-64
2021/04/11 10:25:27;;;;;;;14.63;3.00;;;;;;;6.59;70.05;101287.16;5135747;27;20496;-64
2021/04/11 10:28:04;;;;;;;12.23;3.13;;;;;;;6.79;68.24;101295.59;5134664;27;20412;-65
2021/04/11 10:30:31;;;;;;;11.10;2.90;;;;;;;7.10;67.52;101296.41;5134762;27;20623;-64
2021/04/11 10:33:02;;;;;;;13.25;3.00;;;;;;;7.30;65.94;101292.53;5135824;27;20350;-64
2021/04/11 10:35:58;;;;;;;15.05;2.72;;;;;;;7.29;66.05;101285.47;5133010;27;20035;-65
2021/04/11 10:38:56;;;;;;;11.43;2.88;;;;;;;6.85;67.79;101295.75;5133730;27;20046;-65
2021/04/11 10:41:34;;;;;;;9.00;2.63;;;;;;;6.58;67.80;101307.31;5134058;27;20034;-65
2021/04/11 10:44:05;;;;;;;14.63;3.10;;;;;;;6.37;68.39;101311.94;5135418;27;20035;-65
2021/04/11 10:46:45;;;;;;;8.60;2.45;;;;;;;6.54;68.03;101304.53;5135839;27;20038;-64
2021/04/11 10:49:21;;;;;;;12.25;2.67;;;;;;;6.51;67.88;101310.59;5131385;27;20070;-64
2021/04/11 10:51:51;;;;;;;12.10;2.90;;;;;;;6.65;68.34;101308.34;5130661;27;20046;-64
2021/04/11 10:54:25;;;;;;;12.48;2.85;;;;;;;7.09;67.34;101310.38;5135979;27;20027;-64
2021/04/11 10:57:09;;;;;;;13.05;2.80;;;;;;;7.67;65.85;101303.97;5132594;27;20031;-64
2021/04/11 10:59:55;;;;;;;11.68;3.00;;;;;;;8.10;64.78;101308.44;5133466;27;20134;-64
2021/04/11 11:02:57;;;;;;;11.25;2.90;;;;;;;8.28;62.97;101305.28;5132435;27;20023;-64
2021/04/11 11:05:38;;;;;;;13.48;2.83;;;;;;;8.53;62.08;101302.34;5131300;27;20470;-64
2021/04/11 11:08:36;;;;;;;12.98;2.78;;;;;;;8.39;60.93;101311.69;5133039;27;20470;-64
2021/04/11 11:11:20;;;;;;;11.20;2.90;;;;;;;8.10;62.66;101309.31;5133591;27;20038;-64
2021/04/11 11:13:45;;;;;;;10.70;2.70;;;;;;;7.84;62.04;101311.34;5134598;27;20819;-64
2021/04/11 11:16:19;;;;;;;14.55;2.83;;;;;;;7.76;61.26;101320.81;5134882;27;20370;-64
2021/04/11 11:19:01;;;;;;;12.70;2.72;;;;;;;7.87;62.19;101323.69;5134383;27;20027;-64
2021/04/11 11:21:48;;;;;;;11.95;2.92;;;;;;;8.11;63.20;101320.72;5131839;27;20030;-64
2021/04/11 11:24:51;;;;;;;10.88;2.72;;;;;;;8.13;62.83;101326.94;5134402;27;20559;-64
2021/04/11 11:27:45;;;;;;;11.80;2.65;;;;;;;8.00;62.81;101326.63;5134251;27;20511;-64
2021/04/11 11:30:34;;;;;;;12.27;2.60;;;;;;;7.90;61.38;101323.78;5133020;27;20038;-64
2021/04/11 11:33:22;;;;;;;12.80;2.50;;;;;;;8.03;59.68;101334.59;5134372;27;20382;-63
2021/04/11 11:35:50;;;;;;;7.35;2.67;;;;;;;8.58;59.23;101341.03;5134627;27;20057;-63
2021/04/11 11:38:40;;;;;;;8.30;2.30;;;;;;;9.51;56.60;101341.00;5134669;27;20046;-63
2021/04/11 11:41:17;;;;;;;9.27;2.50;;;;;;;9.56;54.63;101349.91;5069275;28;20045;-63
2021/04/11 11:44:01;;;;;;;9.85;2.75;;;;;;;9.04;53.71;101341.94;5071205;28;20157;-64
2021/04/11 11:46:55;;;;;;;8.18;2.58;;;;;;;8.31;58.72;101350.13;5071217;28;20128;-64
2021/04/11 11:49:49;;;;;;;8.43;2.75;;;;;;;7.76;60.40;101357.66;5070451;28;20029;-64
2021/04/11 11:52:23;;;;;;;12.15;2.80;;;;;;;7.50;61.36;101360.56;5070247;28;20127;-63
2021/04/11 11:55:04;;;;;;;9.27;2.72;;;;;;;7.31;61.78;101349.56;5070024;28;20059;-63
2021/04/11 11:57:51;;;;;;;13.52;2.80;;;;;;;7.01;61.71;101351.38;5070510;28;20119;-63
2021/04/11 12:00:36;;;;;;;12.23;2.80;;;;;;;6.93;62.15;101357.31;5070278;28;20052;-63
2021/04/11 12:03:26;;;;;;;12.70;2.90;;;;;;;6.97;62.94;101366.16;5070978;28;20032;-63
2021/04/11 12:06:16;;;;;;;10.25;2.70;;;;;;;7.39;61.75;101356.75;5068837;28;20048;-64
2021/04/11 12:08:53;;;;;;;10.02;2.70;;;;;;;7.65;60.63;101362.66;5069085;28;20140;-64
2021/04/11 12:11:41;;;;;;;8.82;2.70;;;;;;;7.83;59.58;101380.63;5069873;28;20033;-64